createdAt,value
2019-03-03T00:01:22.637Z,21.77
2019-03-03T00:03:52.168Z,25.37
2019-03-03T00:06:21.653Z,33.90
2019-03-03T00:08:51.173Z,20.53
2019-03-03T00:11:20.688Z,13.20
2019-03-03T00:13:50.265Z,24.70
2019-03-03T00:16:19.796Z,17.93
2019-03-03T00:18:49.281Z,13.37
2019-03-03T00:21:18.787Z,14.00
2019-03-03T00:23:48.313Z,17.00
2019-03-03T00:26:17.841Z,14.83
2019-03-03T00:28:47.331Z,14.20
2019-03-03T00:31:17.008Z,19.93
2019-03-03T00:33:46.501Z,30.10
2019-03-03T00:36:16.210Z,20.87
2019-03-03T00:38:47.616Z,12.43
2019-03-03T00:41:24.845Z,16.40
2019-03-03T00:44:12.450Z,13.17
2019-03-03T00:46:44.559Z,12.23
2019-03-03T00:49:15.787Z,17.23
2019-03-03T00:51:52.917Z,8.60
2019-03-03T00:54:33.205Z,15.30
2019-03-03T00:57:04.555Z,15.10
2019-03-03T00:59:51.783Z,23.00
2019-03-03T01:02:22.974Z,17.30
2019-03-03T01:04:56.601Z,15.70
2019-03-03T01:07:45.615Z,19.53
2019-03-03T01:10:28.370Z,9.57
2019-03-03T01:13:11.150Z,11.40
2019-03-03T01:15:45.096Z,14.93
2019-03-03T01:18:31.119Z,15.37
2019-03-03T01:21:02.269Z,12.63
2019-03-03T01:23:48.205Z,8.13
2019-03-03T01:26:17.780Z,12.83
2019-03-03T01:28:47.289Z,13.33
2019-03-03T01:31:17.058Z,11.27
2019-03-03T01:33:46.556Z,12.90
2019-03-03T01:36:16.121Z,18.40
2019-03-03T01:38:45.673Z,16.13
2019-03-03T01:41:15.201Z,14.73
2019-03-03T01:43:44.749Z,12.73
2019-03-03T01:46:14.331Z,11.90
2019-03-03T01:48:43.848Z,8.40
2019-03-03T01:51:13.390Z,15.80
2019-03-03T01:53:43.193Z,12.83
2019-03-03T01:56:12.765Z,10.40
2019-03-03T01:58:42.283Z,11.60
2019-03-03T02:01:11.992Z,17.13
2019-03-03T02:03:41.494Z,10.67
2019-03-03T02:06:11.468Z,14.10
2019-03-03T02:08:40.951Z,15.40
2019-03-03T02:11:10.451Z,14.73
2019-03-03T02:13:40.033Z,10.60
2019-03-03T02:16:09.721Z,14.40
2019-03-03T02:18:39.240Z,15.73
2019-03-03T02:21:08.745Z,12.07
2019-03-03T02:23:38.289Z,11.47
2019-03-03T02:26:07.804Z,22.27
2019-03-03T02:28:37.304Z,8.80
2019-03-03T02:31:06.926Z,19.13
2019-03-03T02:33:36.436Z,15.07
2019-03-03T02:36:05.935Z,11.47
2019-03-03T02:38:35.434Z,11.87
2019-03-03T02:41:05.014Z,14.93
2019-03-03T02:43:40.110Z,28.13
2019-03-03T02:46:09.582Z,15.27
2019-03-03T02:48:39.128Z,12.50
2019-03-03T02:51:08.618Z,14.17
2019-03-03T02:53:38.127Z,8.57
2019-03-03T02:56:08.109Z,8.80
2019-03-03T02:58:37.621Z,12.07
2019-03-03T03:01:12.183Z,18.20
2019-03-03T03:03:42.673Z,15.43
2019-03-03T03:06:16.847Z,10.40
2019-03-03T03:08:47.986Z,18.17
2019-03-03T03:11:19.129Z,14.93
2019-03-03T03:14:06.577Z,16.93
2019-03-03T03:16:55.804Z,21.07
2019-03-03T03:19:35.523Z,8.83
2019-03-03T03:22:06.662Z,15.53
2019-03-03T03:24:43.691Z,11.73
2019-03-03T03:27:14.865Z,12.63
2019-03-03T03:30:03.929Z,15.37
2019-03-03T03:32:37.890Z,15.63
2019-03-03T03:35:09.722Z,18.40
2019-03-03T03:38:08.792Z,15.90
2019-03-03T03:40:49.041Z,15.53
2019-03-03T03:43:23.341Z,18.10
2019-03-03T03:46:09.300Z,17.13
2019-03-03T03:48:56.280Z,22.87
2019-03-03T03:51:29.962Z,21.60
2019-03-03T03:54:01.209Z,20.80
2019-03-03T03:56:32.457Z,24.70
2019-03-03T03:59:12.322Z,15.67
2019-03-03T04:01:43.497Z,18.63
2019-03-03T04:04:20.395Z,14.83
2019-03-03T04:06:57.260Z,27.93
2019-03-03T04:09:40.461Z,19.33
2019-03-03T04:12:11.626Z,15.33
2019-03-03T04:14:48.710Z,16.50
2019-03-03T04:17:28.613Z,13.10
2019-03-03T04:20:05.318Z,16.33
2019-03-03T04:22:39.435Z,22.60
2019-03-03T04:25:16.272Z,16.20
2019-03-03T04:27:50.206Z,13.37
2019-03-03T04:30:29.914Z,22.73
2019-03-03T04:33:01.077Z,18.07
2019-03-03T04:35:35.214Z,19.03
2019-03-03T04:38:18.375Z,23.80
2019-03-03T04:40:52.228Z,15.00
2019-03-03T04:43:26.336Z,15.00
2019-03-03T04:45:57.546Z,17.73
2019-03-03T04:48:28.674Z,18.67
2019-03-03T04:51:02.862Z,24.50
2019-03-03T04:53:34.023Z,12.67
2019-03-03T04:56:21.420Z,14.47
2019-03-03T04:58:52.573Z,24.07
2019-03-03T05:01:32.514Z,20.63
2019-03-03T05:04:07.699Z,25.67
2019-03-03T05:06:48.047Z,24.93
2019-03-03T05:09:21.674Z,24.10
2019-03-03T05:12:13.477Z,22.03
2019-03-03T05:14:44.159Z,19.90
2019-03-03T05:17:24.550Z,25.07
2019-03-03T05:20:09.208Z,25.77
2019-03-03T05:22:38.797Z,21.60
2019-03-03T05:25:08.318Z,24.50
2019-03-03T05:27:37.833Z,22.93
2019-03-03T05:30:10.425Z,17.43
2019-03-03T05:32:39.911Z,19.60
2019-03-03T05:35:10.151Z,27.93
2019-03-03T05:37:39.837Z,21.67
2019-03-03T05:40:09.493Z,25.30
2019-03-03T05:42:38.992Z,27.17
2019-03-03T05:45:08.578Z,16.47
2019-03-03T05:47:38.161Z,27.23
2019-03-03T05:50:07.745Z,22.17
2019-03-03T05:52:37.667Z,21.40
2019-03-03T05:55:07.297Z,25.47
2019-03-03T05:57:36.995Z,25.57
2019-03-03T06:00:12.306Z,24.67
2019-03-03T06:02:42.208Z,21.63
2019-03-03T06:05:12.091Z,32.57
2019-03-03T06:07:41.752Z,33.40
2019-03-03T06:10:11.241Z,26.03
2019-03-03T06:12:41.100Z,14.63
2019-03-03T06:15:13.909Z,32.83
2019-03-03T06:17:43.401Z,26.27
2019-03-03T06:20:13.030Z,28.60
2019-03-03T06:22:42.706Z,19.40
2019-03-03T06:25:12.277Z,23.67
2019-03-03T06:27:41.844Z,26.50
2019-03-03T06:30:13.981Z,23.67
2019-03-03T06:32:44.636Z,20.47
2019-03-03T06:35:14.196Z,28.53
2019-03-03T06:37:44.020Z,23.90
2019-03-03T06:40:13.600Z,22.13
2019-03-03T06:42:43.103Z,29.53
2019-03-03T06:45:13.796Z,17.87
2019-03-03T06:47:43.886Z,20.77
2019-03-03T06:50:13.649Z,22.30
2019-03-03T06:52:43.141Z,21.93
2019-03-03T06:55:12.820Z,29.23
2019-03-03T06:57:42.343Z,38.33
2019-03-03T07:00:16.390Z,27.67
2019-03-03T07:02:46.068Z,21.60
2019-03-03T07:05:15.549Z,20.90
2019-03-03T07:07:45.038Z,26.03
2019-03-03T07:10:14.721Z,23.00
2019-03-03T07:12:44.509Z,20.67
2019-03-03T07:15:16.222Z,22.53
2019-03-03T07:17:45.737Z,25.00
2019-03-03T07:20:15.254Z,13.90
2019-03-03T07:22:44.795Z,19.30
2019-03-03T07:25:14.731Z,28.73
2019-03-03T07:27:44.338Z,24.83
2019-03-03T07:30:15.229Z,22.43
2019-03-03T07:33:04.570Z,29.00
2019-03-03T07:35:34.084Z,29.47
2019-03-03T07:38:03.681Z,27.17
2019-03-03T07:40:33.180Z,24.30
2019-03-03T07:43:02.700Z,32.20
2019-03-03T07:45:32.226Z,23.27
2019-03-03T07:48:01.804Z,24.13
2019-03-03T07:50:31.357Z,24.90
2019-03-03T07:53:00.950Z,20.33
2019-03-03T07:55:30.776Z,22.57
2019-03-03T07:58:00.287Z,21.80
2019-03-03T08:00:29.795Z,24.70
2019-03-03T08:02:59.658Z,23.37
2019-03-03T08:05:29.153Z,24.20
2019-03-03T08:07:58.820Z,21.60
2019-03-03T08:10:28.643Z,25.97
2019-03-03T08:12:58.140Z,50.37
2019-03-03T08:15:27.651Z,17.90
2019-03-03T08:17:57.454Z,28.57
2019-03-03T08:20:26.944Z,29.60
2019-03-03T08:22:56.446Z,16.50
2019-03-03T08:25:25.984Z,24.70
2019-03-03T08:27:55.658Z,20.83
2019-03-03T08:30:25.377Z,19.20
2019-03-03T08:32:54.893Z,29.10
2019-03-03T08:35:26.788Z,22.53
2019-03-03T08:37:56.287Z,28.33
2019-03-03T08:40:25.868Z,32.90
2019-03-03T08:43:05.842Z,29.77
2019-03-03T08:45:42.809Z,23.60
2019-03-03T08:48:13.994Z,33.53
2019-03-03T08:50:47.857Z,21.23
2019-03-03T08:53:19.043Z,27.93
2019-03-03T08:55:56.653Z,32.93
2019-03-03T08:58:27.838Z,23.17
2019-03-03T09:00:59.084Z,25.10
2019-03-03T09:03:33.192Z,20.50
2019-03-03T09:06:16.421Z,20.30
2019-03-03T09:08:47.566Z,23.90
2019-03-03T09:11:30.509Z,19.10
2019-03-03T09:14:01.644Z,18.40
2019-03-03T09:16:32.895Z,16.07
2019-03-03T09:19:20.025Z,15.87
2019-03-03T09:22:04.748Z,17.83
2019-03-03T09:24:52.346Z,16.60
2019-03-03T09:27:23.508Z,17.07
2019-03-03T09:29:57.745Z,17.03
2019-03-03T09:32:41.006Z,19.33
2019-03-03T09:35:12.185Z,22.80
2019-03-03T09:37:43.405Z,17.87
2019-03-03T09:40:17.085Z,15.63
2019-03-03T09:42:49.156Z,19.63
2019-03-03T09:45:23.951Z,16.90
2019-03-03T09:48:04.220Z,24.60
2019-03-03T09:50:51.393Z,17.13
2019-03-03T09:53:28.142Z,24.23
2019-03-03T09:56:04.918Z,22.70
2019-03-03T09:58:38.928Z,18.30
2019-03-03T10:01:25.945Z,14.80
2019-03-03T10:04:15.242Z,15.83
2019-03-03T10:06:49.165Z,14.30
2019-03-03T10:09:21.455Z,13.63
2019-03-03T10:12:10.907Z,12.90
2019-03-03T10:14:47.909Z,15.97
2019-03-03T10:17:21.843Z,14.63
2019-03-03T10:19:53.045Z,17.00
2019-03-03T10:22:29.966Z,13.63
2019-03-03T10:25:17.038Z,18.80
2019-03-03T10:27:49.234Z,13.73
2019-03-03T10:30:20.362Z,19.40
2019-03-03T10:32:57.519Z,16.50
2019-03-03T10:35:28.651Z,14.30
2019-03-03T10:38:18.584Z,13.47
2019-03-03T10:40:52.653Z,14.13
2019-03-03T10:43:24.788Z,11.97
2019-03-03T10:45:58.992Z,9.87
2019-03-03T10:48:41.960Z,16.73
2019-03-03T10:51:15.971Z,17.53
2019-03-03T10:53:54.971Z,10.60
2019-03-03T10:56:35.205Z,11.90
2019-03-03T10:59:12.471Z,12.83
2019-03-03T11:01:52.107Z,12.47
2019-03-03T11:04:39.240Z,10.87
2019-03-03T11:07:13.396Z,12.20
2019-03-03T11:09:50.228Z,9.37
2019-03-03T11:12:39.218Z,13.60
2019-03-03T11:15:18.894Z,8.50
2019-03-03T11:17:56.086Z,7.63
2019-03-03T11:20:35.997Z,11.13
2019-03-03T11:23:07.335Z,9.60
2019-03-03T11:25:50.467Z,8.37
2019-03-03T11:28:36.525Z,8.50
2019-03-03T11:31:25.616Z,5.60
2019-03-03T11:34:13.084Z,8.83
2019-03-03T11:36:59.142Z,13.73
2019-03-03T11:39:35.088Z,4.60
2019-03-03T11:42:15.434Z,6.53
2019-03-03T11:45:01.697Z,8.40
2019-03-03T11:47:47.608Z,7.20
2019-03-03T11:50:39.796Z,9.27
2019-03-03T11:53:23.779Z,8.73
2019-03-03T11:56:07.885Z,9.50
2019-03-03T11:58:45.092Z,5.53
2019-03-03T12:01:16.295Z,6.97
2019-03-03T12:03:57.209Z,11.40
2019-03-03T12:06:28.376Z,7.83
2019-03-03T12:09:16.769Z,8.40
2019-03-03T12:11:47.969Z,11.17
2019-03-03T12:14:35.571Z,10.83
2019-03-03T12:17:20.432Z,11.23
2019-03-03T12:19:51.610Z,9.03
2019-03-03T12:22:40.570Z,9.23
2019-03-03T12:25:16.186Z,11.70
2019-03-03T12:27:47.333Z,5.03
2019-03-03T12:30:33.601Z,10.63
2019-03-03T12:33:16.780Z,10.47
2019-03-03T12:35:48.172Z,8.40
2019-03-03T12:38:25.200Z,9.10
2019-03-03T12:40:56.344Z,12.93
2019-03-03T12:43:30.359Z,7.53
2019-03-03T12:46:16.713Z,13.43
2019-03-03T12:48:50.550Z,9.97
2019-03-03T12:51:37.800Z,9.33
2019-03-03T12:54:25.041Z,11.80
2019-03-03T12:56:56.194Z,16.63
2019-03-03T12:59:30.816Z,15.33
2019-03-03T13:02:10.976Z,12.03
2019-03-03T13:04:42.372Z,12.67
2019-03-03T13:07:13.529Z,15.07
2019-03-03T13:09:45.565Z,25.47
2019-03-03T13:12:34.669Z,17.40
2019-03-03T13:15:17.173Z,12.83
2019-03-03T13:17:48.649Z,10.67
2019-03-03T13:20:22.606Z,9.27
2019-03-03T13:23:10.006Z,11.13
2019-03-03T13:25:52.738Z,15.23
2019-03-03T13:28:26.612Z,13.53
2019-03-03T13:30:57.751Z,12.13
2019-03-03T13:33:44.786Z,16.70
2019-03-03T13:36:15.947Z,10.47
2019-03-03T13:39:05.208Z,12.30
2019-03-03T13:41:36.417Z,16.67
2019-03-03T13:44:06.968Z,10.70
2019-03-03T13:46:36.471Z,14.30
2019-03-03T13:49:06.030Z,13.73
2019-03-03T13:51:35.593Z,12.90
2019-03-03T13:54:06.564Z,14.07
2019-03-03T13:56:36.232Z,17.53
2019-03-03T13:59:05.842Z,14.23
2019-03-03T14:01:35.397Z,19.90
2019-03-03T14:04:05.103Z,25.47
2019-03-03T14:06:35.792Z,19.20
2019-03-03T14:09:07.165Z,20.47
2019-03-03T14:11:36.841Z,15.33
2019-03-03T14:14:06.617Z,21.53
2019-03-03T14:16:36.124Z,14.40
2019-03-03T14:19:05.661Z,14.23
2019-03-03T14:21:35.417Z,18.10
2019-03-03T14:24:05.662Z,16.07
2019-03-03T14:26:35.325Z,16.00
2019-03-03T14:29:04.960Z,17.57
2019-03-03T14:31:34.502Z,23.73
2019-03-03T14:34:04.073Z,22.93
2019-03-03T14:36:33.596Z,20.70
2019-03-03T14:39:05.021Z,25.23
2019-03-03T14:41:34.689Z,22.10
2019-03-03T14:44:04.454Z,23.67
2019-03-03T14:46:33.974Z,17.60
2019-03-03T14:49:03.473Z,28.40
2019-03-03T14:51:33.078Z,20.77
2019-03-03T14:54:03.329Z,25.20
2019-03-03T14:56:32.838Z,21.27
2019-03-03T14:59:02.453Z,18.67
2019-03-03T15:01:32.055Z,34.87
2019-03-03T15:04:01.588Z,20.33
2019-03-03T15:06:33.053Z,19.20
2019-03-03T15:09:04.262Z,24.53
2019-03-03T15:11:33.759Z,32.67
2019-03-03T15:14:03.378Z,22.73
2019-03-03T15:16:32.952Z,26.43
2019-03-03T15:19:02.455Z,22.07
2019-03-03T15:21:34.669Z,26.23
2019-03-03T15:24:04.371Z,25.93
2019-03-03T15:26:33.945Z,42.53
2019-03-03T15:29:03.520Z,22.40
2019-03-03T15:31:37.711Z,16.73
2019-03-03T15:34:04.294Z,21.90
2019-03-03T15:36:33.846Z,22.20
2019-03-03T15:39:04.867Z,12.50
2019-03-03T15:41:34.408Z,23.10
2019-03-03T15:44:04.840Z,21.27
2019-03-03T15:46:34.414Z,17.00
2019-03-03T15:49:03.889Z,16.60
2019-03-03T15:51:33.378Z,14.97
2019-03-03T15:54:02.884Z,19.67
2019-03-03T15:56:32.385Z,12.33
2019-03-03T15:59:01.906Z,22.40
2019-03-03T16:01:31.390Z,23.27
2019-03-03T16:04:00.956Z,19.30
2019-03-03T16:06:30.540Z,21.17
2019-03-03T16:09:00.057Z,17.43
2019-03-03T16:11:29.829Z,21.67
2019-03-03T16:13:59.619Z,21.20
2019-03-03T16:16:29.165Z,16.60
2019-03-03T16:18:58.662Z,14.37
2019-03-03T16:21:28.217Z,18.57
2019-03-03T16:23:58.941Z,27.23
2019-03-03T16:26:28.474Z,19.27
2019-03-03T16:28:58.021Z,14.63
2019-03-03T16:31:27.527Z,18.63
2019-03-03T16:33:57.031Z,21.30
2019-03-03T16:36:26.612Z,17.53
2019-03-03T16:38:56.193Z,18.73
2019-03-03T16:41:25.685Z,22.87
2019-03-03T16:43:55.225Z,24.47
2019-03-03T16:46:24.787Z,16.97
2019-03-03T16:48:54.360Z,15.97
2019-03-03T16:51:24.906Z,22.20
2019-03-03T16:53:54.435Z,13.20
2019-03-03T16:56:23.936Z,15.43
2019-03-03T16:58:53.430Z,23.50
2019-03-03T17:01:22.994Z,17.97
2019-03-03T17:03:52.599Z,17.83
2019-03-03T17:06:22.109Z,19.23
2019-03-03T17:08:51.647Z,19.97
2019-03-03T17:11:21.224Z,14.13
2019-03-03T17:13:50.777Z,18.07
2019-03-03T17:16:20.276Z,16.47
2019-03-03T17:18:49.877Z,16.43
2019-03-03T17:21:19.408Z,18.53
2019-03-03T17:23:48.971Z,22.30
2019-03-03T17:26:18.693Z,16.63
2019-03-03T17:28:48.188Z,21.77
2019-03-03T17:31:17.702Z,14.13
2019-03-03T17:33:47.233Z,18.97
2019-03-03T17:36:17.693Z,23.33
2019-03-03T17:38:47.236Z,14.70
2019-03-03T17:41:19.934Z,16.87
2019-03-03T17:43:49.607Z,22.77
2019-03-03T17:46:19.169Z,15.23
2019-03-03T17:48:48.702Z,14.67
2019-03-03T17:51:18.217Z,17.20
2019-03-03T17:53:47.885Z,11.80
2019-03-03T17:56:17.425Z,17.53
2019-03-03T17:58:47.000Z,16.40
2019-03-03T18:01:16.563Z,14.17
2019-03-03T18:03:46.186Z,13.03
2019-03-03T18:06:15.730Z,21.03
2019-03-03T18:08:45.228Z,20.40
2019-03-03T18:11:14.732Z,11.27
2019-03-03T18:13:44.872Z,16.73
2019-03-03T18:16:14.378Z,11.67
2019-03-03T18:18:43.941Z,19.80
2019-03-03T18:21:13.497Z,19.03
2019-03-03T18:23:43.070Z,19.93
2019-03-03T18:26:12.643Z,22.07
2019-03-03T18:28:42.426Z,18.70
2019-03-03T18:31:11.927Z,20.53
2019-03-03T18:33:41.426Z,17.17
2019-03-03T18:36:11.004Z,16.80
2019-03-03T18:38:40.536Z,16.33
2019-03-03T18:41:10.061Z,24.83
2019-03-03T18:43:39.672Z,9.87
2019-03-03T18:46:10.273Z,13.70
2019-03-03T18:48:39.775Z,17.33
2019-03-03T18:51:09.361Z,19.67
2019-03-03T18:53:38.922Z,11.43
2019-03-03T18:56:08.424Z,15.73
2019-03-03T18:58:37.929Z,18.30
2019-03-03T19:01:07.476Z,20.63
2019-03-03T19:03:37.001Z,14.40
2019-03-03T19:06:06.503Z,14.50
2019-03-03T19:08:36.041Z,16.33
2019-03-03T19:11:24.200Z,9.53
2019-03-03T19:13:59.487Z,17.73
2019-03-03T19:16:29.001Z,14.97
2019-03-03T19:18:58.517Z,13.27
2019-03-03T19:21:28.049Z,15.57
2019-03-03T19:23:57.596Z,19.97
2019-03-03T19:26:27.100Z,17.07
2019-03-03T19:28:56.815Z,11.13
2019-03-03T19:31:28.357Z,15.53
2019-03-03T19:33:58.581Z,15.93
2019-03-03T19:36:28.089Z,16.40
2019-03-03T19:38:57.629Z,17.80
2019-03-03T19:41:27.292Z,11.93
2019-03-03T19:43:56.827Z,23.83
2019-03-03T19:46:27.329Z,15.87
2019-03-03T19:48:56.869Z,10.07
2019-03-03T19:51:26.372Z,19.13
2019-03-03T19:53:56.864Z,12.10
2019-03-03T19:56:26.406Z,16.00
2019-03-03T19:58:56.243Z,13.23
2019-03-03T20:01:25.951Z,14.33
2019-03-03T20:03:55.448Z,13.87
2019-03-03T20:06:24.953Z,15.00
2019-03-03T20:08:54.482Z,11.37
2019-03-03T20:11:25.000Z,11.63
2019-03-03T20:13:54.607Z,10.20
2019-03-03T20:16:24.129Z,16.27
2019-03-03T20:18:53.707Z,13.03
2019-03-03T20:21:23.233Z,8.80
2019-03-03T20:23:52.700Z,12.47
2019-03-03T20:26:23.263Z,15.97
2019-03-03T20:28:52.810Z,15.03
2019-03-03T20:31:22.346Z,12.60
2019-03-03T20:33:51.913Z,16.77
2019-03-03T20:36:21.473Z,11.00
2019-03-03T20:38:50.993Z,8.80
2019-03-03T20:41:20.494Z,13.53
2019-03-03T20:43:50.258Z,13.20
2019-03-03T20:46:20.199Z,12.40
2019-03-03T20:48:49.805Z,17.57
2019-03-03T20:51:19.370Z,13.87
2019-03-03T20:53:49.304Z,14.07
2019-03-03T20:56:18.896Z,11.63
2019-03-03T20:58:48.652Z,11.00
2019-03-03T21:01:18.259Z,10.57
2019-03-03T21:03:47.821Z,12.87
2019-03-03T21:06:17.621Z,8.00
2019-03-03T21:08:49.224Z,9.17
2019-03-03T21:11:18.871Z,8.73
2019-03-03T21:13:48.396Z,16.10
2019-03-03T21:16:17.917Z,10.40
2019-03-03T21:18:47.500Z,9.43
2019-03-03T21:21:17.039Z,13.83
2019-03-03T21:23:46.585Z,11.50
2019-03-03T21:26:16.087Z,11.80
2019-03-03T21:28:45.817Z,9.90
2019-03-03T21:31:15.457Z,12.67
2019-03-03T21:33:45.999Z,10.60
2019-03-03T21:36:15.855Z,13.33
2019-03-03T21:38:45.385Z,11.33
2019-03-03T21:41:15.274Z,18.90
2019-03-03T21:43:44.793Z,8.63
2019-03-03T21:46:14.313Z,13.23
2019-03-03T21:48:43.896Z,12.77
2019-03-03T21:51:13.549Z,9.93
2019-03-03T21:53:43.077Z,9.57
2019-03-03T21:56:13.609Z,11.63
2019-03-03T21:58:43.651Z,15.40
2019-03-03T22:01:13.193Z,10.87
2019-03-03T22:03:42.829Z,7.13
2019-03-03T22:06:12.376Z,7.10
2019-03-03T22:08:42.213Z,11.13
2019-03-03T22:11:11.713Z,9.37
2019-03-03T22:13:41.295Z,9.27
2019-03-03T22:16:10.834Z,12.80
2019-03-03T22:18:40.338Z,13.20
2019-03-03T22:21:10.817Z,13.23
2019-03-03T22:23:40.356Z,12.93
2019-03-03T22:26:09.851Z,12.00
2019-03-03T22:28:39.484Z,11.80
2019-03-03T22:31:08.969Z,7.17
2019-03-03T22:33:38.477Z,7.53
2019-03-03T22:36:08.007Z,12.67
2019-03-03T22:38:38.459Z,10.37
2019-03-03T22:41:07.968Z,15.30
2019-03-03T22:43:38.418Z,9.33
2019-03-03T22:46:07.945Z,8.50
2019-03-03T22:48:37.473Z,14.50
2019-03-03T22:51:08.103Z,9.93
2019-03-03T22:53:37.777Z,16.00
2019-03-03T22:56:08.619Z,15.70
2019-03-03T22:58:38.165Z,6.33
2019-03-03T23:01:13.472Z,8.33
2019-03-03T23:04:05.301Z,8.63
2019-03-03T23:06:41.027Z,9.37
2019-03-03T23:09:13.787Z,9.70
2019-03-03T23:11:55.283Z,9.10
2019-03-03T23:14:30.689Z,7.60
2019-03-03T23:17:06.441Z,10.87
2019-03-03T23:19:45.255Z,13.63
2019-03-03T23:22:43.368Z,14.73
2019-03-03T23:25:36.977Z,9.80
2019-03-03T23:28:07.459Z,8.27
2019-03-03T23:30:37.111Z,9.37
2019-03-03T23:33:06.600Z,8.90
2019-03-03T23:35:36.137Z,7.83
2019-03-03T23:38:05.714Z,13.00
2019-03-03T23:40:35.245Z,7.97
2019-03-03T23:43:05.517Z,13.23
2019-03-03T23:45:35.043Z,14.17
2019-03-03T23:48:04.624Z,10.37
2019-03-03T23:50:34.167Z,7.97
2019-03-03T23:53:03.741Z,12.10
2019-03-03T23:55:33.237Z,11.07
2019-03-03T23:58:02.760Z,10.60
